Time;durP1;ratioP1;P1;durP2;ratioP2;P2;SDS_P1;SDS_P2;PMS_P1;PMS_P2;Temp;Humidity;BMP_temperature;BMP_pressure;BME280_temperature;BME280_humidity;BME280_pressure;Samples;Min_cycle;Max_cycle;Signal;HPM_P1;HPM_P2
2022/11/17 00:01:26;;;;;;;5.00;3.60;;;;;;;2.33;100.00;95321.26;105215;1306;22415;-78
2022/11/17 00:03:57;;;;;;;4.80;3.80;;;;;;;2.31;100.00;95328.46;105136;1289;22492;-78
2022/11/17 00:06:29;;;;;;;4.40;3.70;;;;;;;2.29;100.00;95331.98;104384;1298;1071634;-77
2022/11/17 00:09:00;;;;;;;3.30;2.90;;;;;;;2.27;100.00;95337.36;105214;1289;22674;-77
2022/11/17 00:14:31;;;;;;;3.70;3.10;;;;;;;2.23;100.00;95335.34;105195;1303;24230;-78
2022/11/17 00:14:35;;;;;;;3.00;2.50;;;;;;;2.22;100.00;95330.31;105230;1303;22477;-78
2022/11/17 00:17:08;;;;;;;3.10;2.70;;;;;;;2.21;100.00;95332.98;105200;1303;25855;-77
2022/11/17 00:22:31;;;;;;;2.70;2.30;;;;;;;2.18;100.00;95334.54;105201;1303;26024;-78
2022/11/17 00:25:03;;;;;;;3.80;2.60;;;;;;;2.16;100.00;95335.52;105221;1292;22466;-77
2022/11/17 00:27:34;;;;;;;3.90;2.80;;;;;;;2.15;100.00;95337.67;105226;1280;24370;-78
2022/11/17 00:30:07;;;;;;;2.80;2.50;;;;;;;2.13;100.00;95340.34;105204;1300;22538;-78
2022/11/17 00:35:27;;;;;;;2.70;1.80;;;;;;;2.13;100.00;95336.52;105180;1289;22473;-78
2022/11/17 00:38:16;;;;;;;3.30;2.70;;;;;;;2.12;100.00;95332.59;105173;1300;24252;-77
2022/11/17 00:40:48;;;;;;;3.00;2.10;;;;;;;2.06;100.00;95335.42;105198;1295;25252;-77
2022/11/17 00:43:19;;;;;;;2.50;2.10;;;;;;;2.02;100.00;95333.75;105223;1303;22471;-77
2022/11/17 00:45:50;;;;;;;3.50;2.10;;;;;;;1.99;100.00;95338.61;105217;1288;22463;-78
2022/11/17 00:48:21;;;;;;;3.70;2.70;;;;;;;2.00;100.00;95341.38;105127;1290;22485;-78
2022/11/17 00:50:52;;;;;;;2.60;2.20;;;;;;;2.02;100.00;95342.84;105100;1294;22463;-77
2022/11/17 00:53:23;;;;;;;3.30;2.90;;;;;;;2.02;100.00;95351.00;105172;1304;22467;-77
2022/11/17 00:55:54;;;;;;;4.20;3.00;;;;;;;2.03;100.00;95347.14;105224;1306;24294;-77
2022/11/17 00:58:26;;;;;;;3.20;2.20;;;;;;;2.02;100.00;95344.31;105072;1306;24232;-77
2022/11/17 01:00:57;;;;;;;2.80;2.50;;;;;;;2.00;100.00;95343.78;105199;1305;22503;-77
2022/11/17 01:03:29;;;;;;;4.20;3.50;;;;;;;1.99;100.00;95339.02;105080;1298;22528;-77
2022/11/17 01:06:06;;;;;;;4.00;3.30;;;;;;;2.00;100.00;95337.72;105121;1285;22479;-77
2022/11/17 01:08:38;;;;;;;5.20;3.80;;;;;;;2.00;100.00;95331.08;105158;1296;22473;-77
2022/11/17 01:11:12;;;;;;;4.60;3.60;;;;;;;2.01;100.00;95329.09;105219;1305;22486;-77
2022/11/17 01:13:45;;;;;;;5.00;3.90;;;;;;;2.00;100.00;95325.02;105230;1285;25155;-77
2022/11/17 01:16:18;;;;;;;5.40;4.00;;;;;;;1.97;100.00;95326.66;105135;1303;22636;-77
2022/11/17 01:18:51;;;;;;;4.30;3.80;;;;;;;1.95;100.00;95328.94;105156;1288;22503;-77
2022/11/17 01:21:24;;;;;;;3.50;3.00;;;;;;;1.94;100.00;95331.52;105192;1303;22466;-77
2022/11/17 01:23:57;;;;;;;3.30;2.90;;;;;;;1.92;100.00;95336.73;105219;1303;22467;-77
2022/11/17 01:26:31;;;;;;;2.90;2.50;;;;;;;1.90;100.00;95337.09;105147;1305;24268;-77
2022/11/17 01:29:06;;;;;;;3.50;2.50;;;;;;;1.87;100.00;95337.13;105192;1305;25260;-78
2022/11/17 01:31:39;;;;;;;2.90;2.50;;;;;;;1.84;100.00;95341.57;105188;1297;22474;-78
2022/11/17 01:34:11;;;;;;;2.40;2.10;;;;;;;1.81;100.00;95341.43;105160;1305;22618;-78
2022/11/17 01:39:33;;;;;;;2.50;2.30;;;;;;;1.73;100.00;95327.98;105188;1297;23791;-77
2022/11/17 01:42:12;;;;;;;3.70;3.00;;;;;;;1.72;100.00;95322.84;105211;1306;22482;-78
2022/11/17 01:45:01;;;;;;;3.50;3.10;;;;;;;1.71;100.00;95331.16;105142;1306;22488;-78
2022/11/17 01:47:42;;;;;;;4.00;2.90;;;;;;;1.70;100.00;95326.45;105152;1303;22885;-78
2022/11/17 01:50:25;;;;;;;3.50;3.20;;;;;;;1.67;100.00;95323.63;105250;1289;22474;-78
2022/11/17 01:52:59;;;;;;;4.30;3.40;;;;;;;1.64;100.00;95320.49;105247;1303;25213;-78
2022/11/17 01:55:36;;;;;;;4.70;3.30;;;;;;;1.60;100.00;95318.50;105205;1303;22469;-78
2022/11/17 01:58:13;;;;;;;4.20;3.70;;;;;;;1.59;100.00;95314.05;105172;1288;22463;-78
2022/11/17 02:00:44;;;;;;;5.50;3.60;;;;;;;1.57;100.00;95311.91;105131;1306;22540;-78
2022/11/17 02:03:16;;;;;;;5.20;3.50;;;;;;;1.55;100.00;95320.65;105137;1306;25231;-78
2022/11/17 02:05:54;;;;;;;4.40;3.10;;;;;;;1.54;100.00;95317.50;105083;1306;22914;-78
2022/11/17 02:08:29;;;;;;;3.90;3.00;;;;;;;1.55;100.00;95324.90;105167;1303;25260;-78
2022/11/17 02:11:00;;;;;;;3.90;3.00;;;;;;;1.56;100.00;95330.80;105195;1306;24260;-78
2022/11/17 02:13:34;;;;;;;3.30;2.50;;;;;;;1.55;100.00;95332.41;105138;1306;22515;-78
2022/11/17 02:16:06;;;;;;;3.00;2.40;;;;;;;1.54;100.00;95335.33;105193;1282;24210;-78
2022/11/17 02:18:38;;;;;;;3.70;2.40;;;;;;;1.55;100.00;95335.87;105173;1309;32291;-78
2022/11/17 02:21:37;;;;;;;3.00;2.10;;;;;;;1.55;100.00;95338.89;105262;1291;22462;-78
2022/11/17 02:24:37;;;;;;;2.50;1.90;;;;;;;1.54;100.00;95334.70;105247;1303;22494;-78
2022/11/17 02:27:52;;;;;;;3.70;1.50;;;;;;;1.53;100.00;95327.11;105168;1292;22452;-78
2022/11/17 02:30:24;;;;;;;2.60;2.10;;;;;;;1.52;100.00;95334.41;105209;1305;22498;-78
2022/11/17 02:33:11;;;;;;;2.50;2.10;;;;;;;1.53;100.00;95329.67;105218;1304;25476;-78
2022/11/17 02:35:50;;;;;;;2.50;2.00;;;;;;;1.53;100.00;95330.45;105188;1303;22555;-78
2022/11/17 02:38:28;;;;;;;2.50;2.10;;;;;;;1.52;100.00;95331.38;105178;1303;23869;-78
2022/11/17 02:41:09;;;;;;;2.80;2.50;;;;;;;1.52;100.00;95332.85;105201;1278;22482;-78
2022/11/17 02:44:04;;;;;;;2.50;2.20;;;;;;;1.52;100.00;95332.70;105211;1289;22482;-78
2022/11/17 02:46:45;;;;;;;3.60;2.20;;;;;;;1.53;100.00;95331.55;105181;1303;25115;-77
2022/11/17 02:49:22;;;;;;;2.60;1.90;;;;;;;1.55;100.00;95334.91;105173;1300;25285;-78
2022/11/17 02:51:58;;;;;;;2.90;2.20;;;;;;;1.56;100.00;95331.85;105188;1309;22475;-78
2022/11/17 02:54:32;;;;;;;3.30;2.30;;;;;;;1.56;100.00;95331.11;105158;1294;22537;-78
2022/11/17 02:57:03;;;;;;;2.80;2.20;;;;;;;1.55;100.00;95330.85;105197;1294;22474;-78
2022/11/17 02:59:37;;;;;;;6.30;2.90;;;;;;;1.54;100.00;95323.09;105194;1285;22518;-78
2022/11/17 03:02:43;;;;;;;3.50;2.70;;;;;;;1.50;100.00;95311.11;105216;1304;22464;-78
2022/11/17 03:05:21;;;;;;;2.90;2.30;;;;;;;1.46;100.00;95302.13;105179;1306;23827;-78
2022/11/17 03:08:04;;;;;;;4.60;3.00;;;;;;;1.43;100.00;95300.28;105186;1305;22497;-78
2022/11/17 03:10:49;;;;;;;4.60;3.30;;;;;;;1.41;100.00;95297.48;105203;1309;22479;-78
2022/11/17 03:13:31;;;;;;;4.10;3.20;;;;;;;1.40;100.00;95300.92;105179;1305;22962;-78
2022/11/17 03:16:12;;;;;;;5.20;3.60;;;;;;;1.40;100.00;95289.44;105204;1296;22472;-78
2022/11/17 03:18:52;;;;;;;4.40;3.70;;;;;;;1.39;100.00;95286.45;105188;1304;34093;-78
2022/11/17 03:21:30;;;;;;;5.80;3.50;;;;;;;1.36;100.00;95292.19;105183;1304;22510;-77
2022/11/17 03:24:06;;;;;;;4.10;3.40;;;;;;;1.35;100.00;95292.17;105170;1304;22491;-78
2022/11/17 03:26:41;;;;;;;3.90;3.40;;;;;;;1.34;100.00;95295.45;105148;1304;22652;-78
2022/11/17 03:29:15;;;;;;;4.70;3.40;;;;;;;1.34;100.00;95296.14;105229;1309;23662;-78
2022/11/17 03:31:50;;;;;;;3.40;3.00;;;;;;;1.33;100.00;95296.65;105162;1289;22475;-78
2022/11/17 03:34:24;;;;;;;4.50;3.50;;;;;;;1.33;100.00;95301.41;105208;1301;22668;-78
2022/11/17 03:37:00;;;;;;;4.30;3.00;;;;;;;1.34;100.00;95302.56;105150;1294;22469;-78
2022/11/17 03:39:35;;;;;;;3.40;3.00;;;;;;;1.33;100.00;95309.08;105220;1295;22485;-78
2022/11/17 03:42:12;;;;;;;3.20;2.50;;;;;;;1.34;100.00;95315.30;105204;1304;22470;-78
2022/11/17 03:44:48;;;;;;;3.80;2.20;;;;;;;1.35;100.00;95316.20;105213;1305;22832;-78
2022/11/17 03:47:21;;;;;;;3.40;1.90;;;;;;;1.36;100.00;95321.16;105270;1304;25263;-78
2022/11/17 03:49:59;;;;;;;2.60;2.00;;;;;;;1.35;100.00;95323.61;105336;1304;26408;-78
2022/11/17 03:52:33;;;;;;;2.20;1.90;;;;;;;1.31;100.00;95323.23;105209;1285;22514;-77
2022/11/17 03:55:09;;;;;;;2.60;1.80;;;;;;;1.30;100.00;95325.36;105215;1301;23235;-77
2022/11/17 03:57:46;;;;;;;2.40;1.70;;;;;;;1.29;100.00;95330.48;105174;1288;25242;-77
2022/11/17 04:00:21;;;;;;;2.80;1.70;;;;;;;1.28;100.00;95330.72;105205;1294;22628;-78
2022/11/17 04:02:58;;;;;;;2.90;1.90;;;;;;;1.25;100.00;95330.31;105142;1294;24251;-78
2022/11/17 04:05:29;;;;;;;2.70;1.90;;;;;;;1.19;100.00;95329.20;105260;1302;22733;-77
2022/11/17 04:08:03;;;;;;;3.90;1.90;;;;;;;1.19;100.00;95332.06;105121;1287;24869;-78
2022/11/17 04:15:55;;;;;;;4.40;2.30;;;;;;;1.14;100.00;95331.52;105199;1304;22927;-78
2022/11/17 04:16:13;;;;;;;3.30;2.80;;;;;;;1.07;100.00;95340.33;105111;1303;23465;-77
2022/11/17 04:18:44;;;;;;;2.90;2.40;;;;;;;1.06;100.00;95338.49;105229;1289;22469;-77
2022/11/17 04:21:15;;;;;;;2.30;2.00;;;;;;;1.04;100.00;95341.19;105239;1304;23051;-78
2022/11/17 04:23:46;;;;;;;2.20;1.90;;;;;;;1.00;100.00;95341.23;105475;1302;23785;-77
2022/11/17 04:29:09;;;;;;;2.00;1.80;;;;;;;0.96;100.00;95336.36;105173;1304;26425;-78
2022/11/17 04:31:40;;;;;;;2.30;2.00;;;;;;;0.92;100.00;95337.33;105192;1304;22508;-78
2022/11/17 04:34:11;;;;;;;2.00;1.70;;;;;;;0.91;100.00;95340.66;105210;1304;24285;-78
2022/11/17 04:36:43;;;;;;;2.00;1.70;;;;;;;0.90;100.00;95346.55;105123;1288;24463;-78
2022/11/17 04:39:16;;;;;;;1.50;1.40;;;;;;;0.89;100.00;95343.27;105195;1295;23385;-78
2022/11/17 04:42:02;;;;;;;2.00;1.40;;;;;;;0.90;100.00;95344.16;105165;1301;22497;-78
2022/11/17 04:44:34;;;;;;;2.10;1.90;;;;;;;0.90;100.00;95348.02;105169;1295;22465;-78
2022/11/17 04:47:07;;;;;;;2.10;1.90;;;;;;;0.90;100.00;95345.20;105254;1289;23612;-78
2022/11/17 04:49:38;;;;;;;2.50;1.80;;;;;;;0.90;100.00;95347.45;105352;1295;22607;-78
2022/11/17 04:52:09;;;;;;;2.50;2.00;;;;;;;0.89;100.00;95348.27;105219;1292;22557;-78
2022/11/17 04:54:41;;;;;;;2.20;2.00;;;;;;;0.89;100.00;95349.05;105218;1295;22482;-78
2022/11/17 04:57:12;;;;;;;2.80;1.90;;;;;;;0.90;100.00;95353.34;105134;1303;22474;-78
2022/11/17 04:59:44;;;;;;;2.20;2.00;;;;;;;0.88;100.00;95354.05;105167;1304;22550;-78
2022/11/17 05:02:15;;;;;;;2.30;2.00;;;;;;;0.86;100.00;95352.06;105140;1294;23971;-79
2022/11/17 05:04:58;;;;;;;2.50;2.30;;;;;;;0.86;100.00;95353.16;105213;1304;22557;-78
2022/11/17 05:07:29;;;;;;;3.40;2.70;;;;;;;0.85;100.00;95349.13;105144;1288;25185;-78
2022/11/17 05:10:01;;;;;;;3.40;2.50;;;;;;;0.83;100.00;95349.92;105191;1281;25284;-78
2022/11/17 05:17:03;;;;;;;3.00;2.50;;;;;;;0.80;100.00;95351.98;105181;1304;24231;-78
2022/11/17 05:18:11;;;;;;;2.70;2.40;;;;;;;0.77;100.00;95346.44;105156;1304;22658;-78
2022/11/17 05:20:43;;;;;;;2.70;2.10;;;;;;;0.76;100.00;95351.65;105214;1294;22480;-78
2022/11/17 05:26:05;;;;;;;3.20;2.20;;;;;;;0.76;100.00;95347.16;105152;1304;22936;-78
2022/11/17 05:28:36;;;;;;;1.90;1.70;;;;;;;0.75;100.00;95352.58;105106;1298;23514;-78
2022/11/17 05:31:08;;;;;;;2.60;2.20;;;;;;;0.74;100.00;95351.32;105207;1289;22468;-78
2022/11/17 05:33:40;;;;;;;2.30;2.10;;;;;;;0.73;100.00;95354.45;105229;1282;26568;-77
2022/11/17 05:36:12;;;;;;;1.80;1.40;;;;;;;0.71;100.00;95350.04;105214;1303;23960;-78
2022/11/17 05:38:45;;;;;;;2.50;2.00;;;;;;;0.71;100.00;95350.46;105177;1304;25004;-78
2022/11/17 05:41:17;;;;;;;2.70;2.10;;;;;;;0.71;100.00;95347.54;105143;1306;22487;-77
2022/11/17 05:43:50;;;;;;;2.20;1.90;;;;;;;0.69;100.00;95343.89;105217;1292;22509;-78
2022/11/17 05:46:22;;;;;;;2.70;2.40;;;;;;;0.67;100.00;95344.08;105155;1296;22506;-77
2022/11/17 05:48:54;;;;;;;3.40;2.50;;;;;;;0.64;100.00;95349.18;105193;1304;25392;-78
2022/11/17 05:51:28;;;;;;;2.40;1.90;;;;;;;0.64;100.00;95351.21;105170;1285;26792;-77
2022/11/17 05:54:00;;;;;;;3.40;2.10;;;;;;;0.64;100.00;95353.20;105205;1297;24028;-77
2022/11/17 05:56:39;;;;;;;2.20;2.00;;;;;;;0.64;100.00;95350.75;105135;1285;23802;-77
2022/11/17 05:59:19;;;;;;;2.40;2.20;;;;;;;0.65;100.00;95355.55;105218;1288;23264;-77
2022/11/17 06:01:57;;;;;;;2.50;2.20;;;;;;;0.66;100.00;95360.20;105200;1294;23282;-78
2022/11/17 06:04:28;;;;;;;2.70;1.90;;;;;;;0.68;100.00;95364.60;105147;1304;22472;-77
2022/11/17 06:07:01;;;;;;;2.40;2.20;;;;;;;0.68;100.00;95373.00;105159;1285;22466;-78
2022/11/17 06:09:35;;;;;;;3.00;2.00;;;;;;;0.69;100.00;95374.36;105199;1304;22464;-77
2022/11/17 06:12:07;;;;;;;2.50;1.80;;;;;;;0.69;100.00;95378.69;105263;1304;22846;-78
2022/11/17 06:14:41;;;;;;;2.70;2.10;;;;;;;0.69;100.00;95380.73;105219;1298;24134;-78
2022/11/17 06:17:20;;;;;;;3.30;2.30;;;;;;;0.71;100.00;95384.98;105165;1291;22546;-77
2022/11/17 06:19:56;;;;;;;2.80;2.00;;;;;;;0.70;100.00;95383.98;105171;1293;22473;-78
2022/11/17 06:22:29;;;;;;;1.90;1.70;;;;;;;0.71;100.00;95382.49;105176;1288;22460;-77
2022/11/17 06:25:02;;;;;;;2.30;1.90;;;;;;;0.72;100.00;95383.34;105202;1306;25013;-78
2022/11/17 06:27:34;;;;;;;2.20;1.70;;;;;;;0.74;100.00;95379.33;105141;1298;25216;-77
2022/11/17 06:30:07;;;;;;;3.20;2.00;;;;;;;0.75;100.00;95379.80;105199;1297;25263;-78
2022/11/17 06:32:42;;;;;;;2.60;1.90;;;;;;;0.77;100.00;95382.95;105284;1303;22483;-78
2022/11/17 06:35:16;;;;;;;1.90;1.40;;;;;;;0.78;100.00;95384.95;105241;1285;23916;-77
2022/11/17 06:37:49;;;;;;;1.60;1.50;;;;;;;0.77;100.00;95385.93;105166;1296;23031;-77
2022/11/17 06:40:21;;;;;;;1.70;1.50;;;;;;;0.76;100.00;95384.67;105216;1303;22470;-77
2022/11/17 06:43:07;;;;;;;1.60;1.50;;;;;;;0.75;100.00;95383.58;105198;1294;23933;-77
2022/11/17 06:45:40;;;;;;;2.30;1.60;;;;;;;0.75;100.00;95390.45;105243;1289;25334;-78
2022/11/17 06:48:12;;;;;;;2.80;2.00;;;;;;;0.74;100.00;95390.18;105159;1303;22477;-78
2022/11/17 06:50:44;;;;;;;3.50;2.30;;;;;;;0.78;100.00;95389.95;105188;1303;22550;-78
2022/11/17 06:53:15;;;;;;;3.20;2.50;;;;;;;0.79;100.00;95387.46;105192;1303;24263;-78
2022/11/17 06:55:49;;;;;;;3.90;2.30;;;;;;;0.78;100.00;95389.60;105186;1294;23141;-78
2022/11/17 06:58:21;;;;;;;2.40;1.60;;;;;;;0.79;100.00;95393.51;105155;1281;26552;-78
2022/11/17 07:00:52;;;;;;;3.00;2.10;;;;;;;0.80;100.00;95393.98;105222;1289;24472;-78
2022/11/17 07:03:23;;;;;;;2.80;2.10;;;;;;;0.82;100.00;95396.66;105230;1288;22481;-78
2022/11/17 07:05:58;;;;;;;2.90;2.20;;;;;;;0.83;100.00;95396.92;105220;1285;22519;-78
2022/11/17 07:08:30;;;;;;;2.80;2.20;;;;;;;0.83;100.00;95395.36;105179;1284;22471;-78
2022/11/17 07:11:06;;;;;;;3.20;2.10;;;;;;;0.82;100.00;95397.44;105192;1288;22458;-78
2022/11/17 07:13:39;;;;;;;2.70;1.90;;;;;;;0.82;100.00;95393.38;105276;1303;24326;-78
2022/11/17 07:16:15;;;;;;;3.00;1.90;;;;;;;0.82;100.00;95396.46;105205;1289;25441;-77
2022/11/17 07:18:47;;;;;;;2.30;1.90;;;;;;;0.82;100.00;95398.38;105240;1293;24057;-78
2022/11/17 07:21:21;;;;;;;2.70;1.40;;;;;;;0.84;100.00;95400.39;105198;1303;22473;-78
2022/11/17 07:23:53;;;;;;;3.50;2.10;;;;;;;0.85;100.00;95406.16;105310;1303;24108;-79
2022/11/17 07:26:26;;;;;;;4.90;2.10;;;;;;;0.85;100.00;95405.99;105157;1280;25216;-78
2022/11/17 07:28:57;;;;;;;2.70;2.00;;;;;;;0.85;100.00;95405.23;105174;1289;22493;-78
2022/11/17 07:31:29;;;;;;;3.20;2.20;;;;;;;0.83;100.00;95413.17;105170;1302;23724;-78
2022/11/17 07:34:00;;;;;;;3.30;1.70;;;;;;;0.82;100.00;95416.08;105175;1302;22487;-78
2022/11/17 07:36:34;;;;;;;2.90;1.90;;;;;;;0.82;100.00;95417.23;105142;1302;27598;-78
2022/11/17 07:39:06;;;;;;;2.30;1.70;;;;;;;0.81;100.00;95417.20;105235;1288;23389;-78
2022/11/17 07:41:37;;;;;;;1.80;1.60;;;;;;;0.80;100.00;95413.19;105179;1288;22472;-78
2022/11/17 07:44:09;;;;;;;1.60;1.30;;;;;;;0.81;100.00;95409.75;105219;1278;22482;-78
2022/11/17 07:46:40;;;;;;;2.00;1.70;;;;;;;0.80;100.00;95412.45;105234;1303;22553;-79
2022/11/17 07:49:16;;;;;;;3.80;2.00;;;;;;;0.79;100.00;95413.23;105365;1303;22479;-78
2022/11/17 07:51:47;;;;;;;3.30;2.10;;;;;;;0.79;100.00;95414.91;105202;1303;24236;-78
2022/11/17 07:54:18;;;;;;;3.60;1.60;;;;;;;0.82;100.00;95416.17;105192;1302;22470;-78
2022/11/17 07:56:49;;;;;;;1.60;1.40;;;;;;;0.83;100.00;95416.23;105187;1303;22864;-78
2022/11/17 07:59:23;;;;;;;2.50;1.70;;;;;;;0.86;100.00;95417.17;105083;1288;26564;-78
2022/11/17 08:01:54;;;;;;;2.20;1.60;;;;;;;0.86;100.00;95425.98;105158;1289;22490;-78
2022/11/17 08:04:26;;;;;;;2.60;1.80;;;;;;;0.85;100.00;95420.80;105171;1281;22507;-78
2022/11/17 08:06:57;;;;;;;2.00;1.80;;;;;;;0.86;100.00;95423.65;105012;1298;22467;-78
2022/11/17 08:09:28;;;;;;;2.20;1.50;;;;;;;0.89;100.00;95421.89;105174;1306;22475;-78
2022/11/17 08:12:00;;;;;;;2.50;1.80;;;;;;;0.93;100.00;95425.84;105183;1304;22472;-78
2022/11/17 08:14:31;;;;;;;1.90;1.40;;;;;;;0.96;100.00;95419.45;105177;1285;26125;-78
2022/11/17 08:17:02;;;;;;;2.40;1.90;;;;;;;0.99;100.00;95419.39;105204;1288;25138;-78
2022/11/17 08:19:33;;;;;;;2.90;1.90;;;;;;;0.99;100.00;95417.41;105437;1291;26486;-78
2022/11/17 08:22:06;;;;;;;2.40;1.70;;;;;;;1.01;100.00;95416.38;105234;1282;22456;-78
2022/11/17 08:24:37;;;;;;;1.30;1.10;;;;;;;1.02;100.00;95417.52;105414;1298;24099;-78
2022/11/17 08:27:09;;;;;;;1.60;1.40;;;;;;;1.00;100.00;95416.22;105332;1295;22474;-78
2022/11/17 08:29:40;;;;;;;2.30;1.60;;;;;;;0.98;100.00;95420.81;105260;1303;22489;-78
2022/11/17 08:32:12;;;;;;;3.20;1.80;;;;;;;0.97;100.00;95423.05;105467;1301;22510;-78
2022/11/17 08:34:43;;;;;;;1.60;1.50;;;;;;;0.98;100.00;95423.53;105238;1281;22587;-78
2022/11/17 08:37:14;;;;;;;2.80;1.80;;;;;;;0.98;100.00;95420.61;105152;1285;22470;-78
2022/11/17 08:39:45;;;;;;;2.60;1.60;;;;;;;0.97;100.00;95423.73;105228;1296;22568;-78
2022/11/17 08:42:17;;;;;;;1.90;1.70;;;;;;;0.98;100.00;95423.48;105174;1289;22549;-78
2022/11/17 08:44:49;;;;;;;2.20;1.90;;;;;;;1.00;100.00;95426.66;105210;1297;24276;-78
2022/11/17 08:47:20;;;;;;;3.20;1.90;;;;;;;1.02;100.00;95427.77;105139;1284;37124;-78
2022/11/17 08:49:51;;;;;;;2.60;2.10;;;;;;;1.03;100.00;95425.84;105215;1278;26497;-79
2022/11/17 08:52:23;;;;;;;2.60;2.20;;;;;;;1.06;100.00;95428.16;105212;1279;26570;-78
2022/11/17 08:54:54;;;;;;;3.20;2.10;;;;;;;1.06;100.00;95427.48;105188;1295;22474;-78
2022/11/17 08:57:29;;;;;;;3.60;2.60;;;;;;;1.02;100.00;95433.10;105166;1288;32592;-79
2022/11/17 09:00:00;;;;;;;2.90;2.30;;;;;;;0.97;100.00;95440.08;105368;1296;25220;-79
2022/11/17 09:02:32;;;;;;;3.70;2.70;;;;;;;0.90;100.00;95441.52;105186;1300;22449;-79
2022/11/17 09:05:03;;;;;;;3.10;2.20;;;;;;;0.82;100.00;95450.30;105221;1297;22504;-79
2022/11/17 09:07:38;;;;;;;3.70;2.80;;;;;;;0.80;100.00;95452.00;105170;1295;22472;-79
2022/11/17 09:10:11;;;;;;;4.00;2.80;;;;;;;0.77;100.00;95455.05;105227;1294;22772;-79
2022/11/17 09:12:42;;;;;;;5.20;3.10;;;;;;;0.78;100.00;95456.16;105194;1284;24253;-79
2022/11/17 09:15:14;;;;;;;4.50;2.30;;;;;;;0.77;100.00;95456.83;105215;1297;22416;-79
2022/11/17 09:17:46;;;;;;;4.10;2.70;;;;;;;0.75;100.00;95457.96;105177;1295;22559;-79
2022/11/17 09:20:19;;;;;;;3.60;2.90;;;;;;;0.77;100.00;95459.70;105203;1275;23780;-79
2022/11/17 09:22:50;;;;;;;3.70;3.10;;;;;;;0.81;100.00;95454.52;105203;1303;25080;-79
2022/11/17 09:25:22;;;;;;;4.00;2.80;;;;;;;0.81;100.00;95450.35;105218;1286;22492;-79
2022/11/17 09:27:53;;;;;;;3.50;2.50;;;;;;;0.84;100.00;95449.67;105120;1278;22485;-79
2022/11/17 09:30:25;;;;;;;3.70;2.30;;;;;;;0.86;100.00;95449.73;105213;1291;26559;-79
2022/11/17 09:32:58;;;;;;;3.30;2.30;;;;;;;0.89;100.00;95445.05;105224;1285;24260;-79
2022/11/17 09:35:29;;;;;;;3.10;2.50;;;;;;;0.96;100.00;95442.34;105216;1303;25263;-79
2022/11/17 09:38:02;;;;;;;2.60;1.90;;;;;;;1.03;100.00;95445.36;105169;1303;24260;-79
2022/11/17 09:40:34;;;;;;;3.70;2.40;;;;;;;1.06;100.00;95447.79;105149;1303;22494;-79
2022/11/17 09:43:08;;;;;;;3.70;2.50;;;;;;;1.04;100.00;95450.06;105185;1288;23789;-79
2022/11/17 09:45:40;;;;;;;3.50;2.50;;;;;;;0.99;100.00;95445.36;105188;1303;22473;-79
2022/11/17 09:48:22;;;;;;;3.90;2.50;;;;;;;0.95;100.00;95443.96;105137;1279;24967;-79
2022/11/17 09:51:00;;;;;;;3.30;2.40;;;;;;;0.90;100.00;95441.48;105187;1284;22562;-79
2022/11/17 09:53:42;;;;;;;2.60;2.10;;;;;;;0.91;100.00;95442.84;105190;1278;26477;-79
2022/11/17 09:56:15;;;;;;;2.30;2.00;;;;;;;0.90;100.00;95446.42;105094;1304;22477;-77
2022/11/17 09:58:51;;;;;;;2.80;1.90;;;;;;;0.85;100.00;95447.00;105207;1282;24238;-79
2022/11/17 10:01:23;;;;;;;2.30;2.00;;;;;;;0.78;100.00;95449.73;105230;1303;25583;-79
2022/11/17 10:03:55;;;;;;;4.20;2.00;;;;;;;0.74;100.00;95448.86;105179;1303;22911;-79
2022/11/17 10:06:28;;;;;;;2.90;2.30;;;;;;;0.73;100.00;95450.05;105160;1296;26517;-79
2022/11/17 10:09:06;;;;;;;3.20;2.40;;;;;;;0.74;100.00;95455.34;105165;1295;25476;-79
2022/11/17 10:11:42;;;;;;;2.60;2.20;;;;;;;0.77;100.00;95449.80;105136;1288;22475;-79
2022/11/17 10:14:16;;;;;;;3.20;2.40;;;;;;;0.82;100.00;95443.67;105199;1288;22543;-79
2022/11/17 10:16:53;;;;;;;3.20;2.20;;;;;;;0.86;100.00;95438.84;105143;1284;24228;-79
2022/11/17 10:19:25;;;;;;;2.90;2.20;;;;;;;0.90;100.00;95436.30;105167;1304;22580;-79
2022/11/17 10:22:16;;;;;;;4.00;2.30;;;;;;;0.89;100.00;95436.20;105192;1279;25111;-78
2022/11/17 10:24:49;;;;;;;3.40;2.30;;;;;;;0.89;100.00;95429.05;105195;1292;25220;-79
2022/11/17 10:27:26;;;;;;;4.70;2.10;;;;;;;0.84;100.00;95429.97;105133;1285;22482;-78
2022/11/17 10:30:04;;;;;;;2.80;2.30;;;;;;;0.83;100.00;95430.64;105449;1278;25384;-78
2022/11/17 10:32:46;;;;;;;2.90;2.10;;;;;;;0.83;100.00;95430.06;105218;1281;22457;-79
2022/11/17 10:35:20;;;;;;;2.80;2.00;;;;;;;0.84;100.00;95435.14;105202;1303;22466;-79
2022/11/17 10:37:57;;;;;;;3.20;2.60;;;;;;;0.87;100.00;95435.23;105189;1303;22479;-78
2022/11/17 10:40:31;;;;;;;3.10;2.50;;;;;;;0.91;100.00;95437.72;105254;1304;25212;-78
2022/11/17 10:43:16;;;;;;;3.40;2.70;;;;;;;0.95;100.00;95443.45;105181;1296;22481;-78
2022/11/17 10:45:49;;;;;;;3.50;2.90;;;;;;;1.03;100.00;95441.91;105174;1291;23793;-78
2022/11/17 10:48:27;;;;;;;5.40;3.80;;;;;;;1.07;100.00;95441.22;105133;1294;23836;-78
2022/11/17 10:51:02;;;;;;;3.30;2.80;;;;;;;1.07;100.00;95439.29;105184;1304;22744;-78
2022/11/17 10:53:37;;;;;;;5.10;3.30;;;;;;;1.10;100.00;95437.90;105199;1296;24261;-78
2022/11/17 10:56:15;;;;;;;3.70;2.70;;;;;;;1.12;100.00;95434.52;105092;1290;25607;-78
2022/11/17 10:59:03;;;;;;;4.30;2.80;;;;;;;1.11;100.00;95437.49;105248;1304;23085;-78
2022/11/17 11:01:37;;;;;;;4.00;2.70;;;;;;;1.09;100.00;95439.45;105200;1292;22521;-78
2022/11/17 11:04:26;;;;;;;3.90;2.90;;;;;;;1.08;100.00;95447.80;105255;1304;22497;-79
2022/11/17 11:07:11;;;;;;;3.80;2.70;;;;;;;1.08;100.00;95451.98;105169;1288;25392;-78
2022/11/17 11:09:49;;;;;;;3.90;2.90;;;;;;;1.11;100.00;95454.86;105181;1295;25465;-78
2022/11/17 11:12:28;;;;;;;4.20;2.80;;;;;;;1.13;100.00;95450.84;105203;1304;24273;-78
2022/11/17 11:15:02;;;;;;;4.70;3.30;;;;;;;1.16;100.00;95447.79;105181;1304;23056;-78
2022/11/17 11:17:33;;;;;;;5.60;4.10;;;;;;;1.16;100.00;95447.16;105150;1304;22505;-78
2022/11/17 11:20:12;;;;;;;5.90;4.60;;;;;;;1.17;100.00;95453.69;105133;1304;24363;-78
2022/11/17 11:22:52;;;;;;;6.00;4.50;;;;;;;1.20;100.00;95457.41;105222;1291;22508;-78
2022/11/17 11:25:34;;;;;;;4.90;3.60;;;;;;;1.21;100.00;95458.83;105175;1296;25255;-78
2022/11/17 11:28:21;;;;;;;5.50;3.60;;;;;;;1.19;100.00;95460.80;105291;1297;24398;-78
2022/11/17 11:31:03;;;;;;;4.20;3.40;;;;;;;1.22;100.00;95456.96;105192;1303;25519;-78
2022/11/17 11:33:39;;;;;;;4.70;3.50;;;;;;;1.27;100.00;95453.52;105256;1300;22499;-78
2022/11/17 11:36:31;;;;;;;3.60;3.00;;;;;;;1.31;100.00;95453.96;105218;1303;22799;-78
2022/11/17 11:39:10;;;;;;;5.10;3.10;;;;;;;1.27;100.00;95453.10;105208;1304;26557;-78
2022/11/17 11:42:06;;;;;;;4.40;2.90;;;;;;;1.29;100.00;95453.28;105215;1304;22474;-78
2022/11/17 11:44:51;;;;;;;3.80;2.80;;;;;;;1.31;100.00;95456.11;105201;1298;23952;-78
2022/11/17 11:47:37;;;;;;;4.40;3.20;;;;;;;1.32;100.00;95453.25;105091;1288;26361;-78
2022/11/17 11:50:18;;;;;;;4.70;3.10;;;;;;;1.24;100.00;95447.48;105215;1304;22520;-77
2022/11/17 11:52:56;;;;;;;4.70;3.10;;;;;;;1.18;100.00;95443.98;105167;1300;22472;-77
2022/11/17 11:55:32;;;;;;;2.80;2.50;;;;;;;1.19;100.00;95443.94;105174;1297;24050;-78
2022/11/17 11:58:11;;;;;;;2.70;2.40;;;;;;;1.12;100.00;95445.19;105139;1291;22682;-78
2022/11/17 12:00:44;;;;;;;3.90;2.60;;;;;;;1.04;100.00;95445.10;105236;1298;22488;-77
2022/11/17 12:03:24;;;;;;;18.10;12.30;;;;;;;0.98;100.00;95442.96;105198;1294;25400;-77
2022/11/17 12:09:04;;;;;;;4.70;3.80;;;;;;;1.09;100.00;95434.34;104451;1303;25234;-78
2022/11/17 12:14:29;;;;;;;5.20;3.70;;;;;;;1.17;100.00;95431.71;105202;1301;22472;-77
2022/11/17 12:17:07;;;;;;;4.20;3.30;;;;;;;1.19;100.00;95433.66;105134;1285;25388;-77
2022/11/17 12:19:58;;;;;;;5.30;3.60;;;;;;;1.19;100.00;95431.93;105343;1296;24246;-77
2022/11/17 12:23:06;;;;;;;4.50;3.40;;;;;;;1.18;100.00;95438.40;105251;1275;24247;-77
2022/11/17 12:25:44;;;;;;;5.30;4.10;;;;;;;1.16;100.00;95450.66;105192;1289;26676;-77
2022/11/17 12:28:34;;;;;;;5.30;4.10;;;;;;;1.17;100.00;95457.09;105130;1297;23825;-77